Ault, Minnesota
Current Conditions -  °F | °C
As of 3:54 PM on Friday 31 Oct 2014 (Local Time) from KTWM Reporting Station
Clear Clear  
Wind Chill:   Ceiling: Unl
Heat Index:   Visibility: 10mi
Dew Point: -4°   Wind: 6mph
Humidity: 56%   Direction: 160°SSE
Pressure: 30.46"   Gusts: NA
Location:  47.3998°N, 91.9141°W
Report Text: KTWM 312054Z AUTO 16005KT 10SM CLR 04/M04 A3046 RMK AO2
Loading
Personal Weather Stations






























Interactive Weather Map
Tropical Storm Tracking
New forecast layout! Learn more

10-Day Weather Forecast

Advertisements
Track Severe Weather on mobile